sensor_id;sensor_type;location;lat;lon;timestamp;P1;durP1;ratioP1;P2;durP2;ratioP2
6642;SDS011;3357;48.050;7.800;2023-11-18T00:00:13;2.73;;;2.53;;
6642;SDS011;3357;48.050;7.800;2023-11-18T00:02:41;5.20;;;2.60;;
6642;SDS011;3357;48.050;7.800;2023-11-18T00:05:07;3.17;;;2.37;;
6642;SDS011;3357;48.050;7.800;2023-11-18T00:07:33;2.53;;;2.03;;
6642;SDS011;3357;48.050;7.800;2023-11-18T00:09:58;1.80;;;1.70;;
6642;SDS011;3357;48.050;7.800;2023-11-18T00:12:23;1.77;;;1.67;;
6642;SDS011;3357;48.050;7.800;2023-11-18T00:14:49;10.13;;;2.63;;
6642;SDS011;3357;48.050;7.800;2023-11-18T00:17:14;1.77;;;1.67;;
6642;SDS011;3357;48.050;7.800;2023-11-18T00:19:40;1.90;;;1.80;;
6642;SDS011;3357;48.050;7.800;2023-11-18T00:22:07;1.70;;;1.60;;
6642;SDS011;3357;48.050;7.800;2023-11-18T00:24:33;2.40;;;1.80;;
6642;SDS011;3357;48.050;7.800;2023-11-18T00:27:00;1.93;;;1.73;;
6642;SDS011;3357;48.050;7.800;2023-11-18T00:29:30;1.93;;;1.83;;
6642;SDS011;3357;48.050;7.800;2023-11-18T00:32:02;2.50;;;2.30;;
6642;SDS011;3357;48.050;7.800;2023-11-18T00:34:28;2.03;;;1.80;;
6642;SDS011;3357;48.050;7.800;2023-11-18T00:36:54;1.90;;;1.80;;
6642;SDS011;3357;48.050;7.800;2023-11-18T00:39:22;2.30;;;2.10;;
6642;SDS011;3357;48.050;7.800;2023-11-18T00:41:47;2.47;;;2.37;;
6642;SDS011;3357;48.050;7.800;2023-11-18T00:44:13;2.37;;;2.13;;
6642;SDS011;3357;48.050;7.800;2023-11-18T00:46:39;2.50;;;2.30;;
6642;SDS011;3357;48.050;7.800;2023-11-18T00:49:04;2.73;;;2.40;;
6642;SDS011;3357;48.050;7.800;2023-11-18T00:51:30;5.00;;;2.50;;
6642;SDS011;3357;48.050;7.800;2023-11-18T00:53:55;2.47;;;2.27;;
6642;SDS011;3357;48.050;7.800;2023-11-18T00:56:20;2.20;;;2.00;;
6642;SDS011;3357;48.050;7.800;2023-11-18T00:58:47;2.27;;;2.17;;
6642;SDS011;3357;48.050;7.800;2023-11-18T01:01:12;2.53;;;1.90;;
6642;SDS011;3357;48.050;7.800;2023-11-18T01:03:38;2.40;;;2.20;;
6642;SDS011;3357;48.050;7.800;2023-11-18T01:06:03;2.20;;;2.10;;
6642;SDS011;3357;48.050;7.800;2023-11-18T01:08:31;2.43;;;2.23;;
6642;SDS011;3357;48.050;7.800;2023-11-18T01:10:56;2.73;;;2.53;;
6642;SDS011;3357;48.050;7.800;2023-11-18T01:13:21;2.30;;;2.20;;
6642;SDS011;3357;48.050;7.800;2023-11-18T01:15:46;2.77;;;2.57;;
6642;SDS011;3357;48.050;7.800;2023-11-18T01:18:13;3.80;;;2.50;;
6642;SDS011;3357;48.050;7.800;2023-11-18T01:20:38;2.70;;;2.50;;
6642;SDS011;3357;48.050;7.800;2023-11-18T01:23:03;3.30;;;2.67;;
6642;SDS011;3357;48.050;7.800;2023-11-18T01:25:29;2.20;;;2.10;;
6642;SDS011;3357;48.050;7.800;2023-11-18T01:27:54;2.00;;;1.83;;
6642;SDS011;3357;48.050;7.800;2023-11-18T01:30:20;3.10;;;2.80;;
6642;SDS011;3357;48.050;7.800;2023-11-18T01:32:45;3.73;;;3.03;;
6642;SDS011;3357;48.050;7.800;2023-11-18T01:35:11;2.30;;;2.20;;
6642;SDS011;3357;48.050;7.800;2023-11-18T01:37:37;3.17;;;2.60;;
6642;SDS011;3357;48.050;7.800;2023-11-18T01:40:03;2.40;;;2.30;;
6642;SDS011;3357;48.050;7.800;2023-11-18T01:42:32;2.23;;;2.03;;
6642;SDS011;3357;48.050;7.800;2023-11-18T01:44:58;2.43;;;2.23;;
6642;SDS011;3357;48.050;7.800;2023-11-18T01:47:24;2.60;;;2.40;;
6642;SDS011;3357;48.050;7.800;2023-11-18T01:49:51;3.00;;;2.23;;
6642;SDS011;3357;48.050;7.800;2023-11-18T01:52:16;2.00;;;1.90;;
6642;SDS011;3357;48.050;7.800;2023-11-18T01:54:42;1.87;;;1.73;;
6642;SDS011;3357;48.050;7.800;2023-11-18T01:57:09;1.73;;;1.63;;
6642;SDS011;3357;48.050;7.800;2023-11-18T01:59:35;1.53;;;1.43;;
6642;SDS011;3357;48.050;7.800;2023-11-18T02:02:00;8.90;;;1.90;;
6642;SDS011;3357;48.050;7.800;2023-11-18T02:04:26;1.90;;;1.80;;
6642;SDS011;3357;48.050;7.800;2023-11-18T02:06:52;1.90;;;1.70;;
6642;SDS011;3357;48.050;7.800;2023-11-18T02:09:19;1.90;;;1.80;;
6642;SDS011;3357;48.050;7.800;2023-11-18T02:14:24;1.70;;;1.60;;
6642;SDS011;3357;48.050;7.800;2023-11-18T02:16:51;2.03;;;1.83;;
6642;SDS011;3357;48.050;7.800;2023-11-18T02:19:21;1.70;;;1.60;;
6642;SDS011;3357;48.050;7.800;2023-11-18T02:21:49;2.10;;;2.00;;
6642;SDS011;3357;48.050;7.800;2023-11-18T02:24:31;3.00;;;1.60;;
6642;SDS011;3357;48.050;7.800;2023-11-18T02:27:01;2.53;;;2.27;;
6642;SDS011;3357;48.050;7.800;2023-11-18T02:29:29;2.83;;;2.43;;
6642;SDS011;3357;48.050;7.800;2023-11-18T02:31:57;2.40;;;2.20;;
6642;SDS011;3357;48.050;7.800;2023-11-18T02:34:27;2.37;;;2.17;;
6642;SDS011;3357;48.050;7.800;2023-11-18T02:36:54;2.03;;;1.93;;
6642;SDS011;3357;48.050;7.800;2023-11-18T02:39:27;2.00;;;1.90;;
6642;SDS011;3357;48.050;7.800;2023-11-18T02:41:56;1.97;;;1.87;;
6642;SDS011;3357;48.050;7.800;2023-11-18T02:44:22;1.80;;;1.70;;
6642;SDS011;3357;48.050;7.800;2023-11-18T02:46:48;2.00;;;1.13;;
6642;SDS011;3357;48.050;7.800;2023-11-18T02:49:15;1.50;;;1.40;;
6642;SDS011;3357;48.050;7.800;2023-11-18T02:51:41;3.50;;;1.67;;
6642;SDS011;3357;48.050;7.800;2023-11-18T02:54:07;1.67;;;1.50;;
6642;SDS011;3357;48.050;7.800;2023-11-18T02:56:35;1.57;;;1.47;;
6642;SDS011;3357;48.050;7.800;2023-11-18T02:59:00;1.10;;;1.10;;
6642;SDS011;3357;48.050;7.800;2023-11-18T03:01:26;1.30;;;1.20;;
6642;SDS011;3357;48.050;7.800;2023-11-18T03:03:52;1.30;;;1.20;;
6642;SDS011;3357;48.050;7.800;2023-11-18T03:06:18;1.13;;;1.13;;
6642;SDS011;3357;48.050;7.800;2023-11-18T03:08:43;1.63;;;1.30;;
6642;SDS011;3357;48.050;7.800;2023-11-18T03:11:09;1.40;;;1.30;;
6642;SDS011;3357;48.050;7.800;2023-11-18T03:13:34;1.00;;;1.00;;
6642;SDS011;3357;48.050;7.800;2023-11-18T03:16:00;4.93;;;1.20;;
6642;SDS011;3357;48.050;7.800;2023-11-18T03:18:25;1.10;;;1.10;;
6642;SDS011;3357;48.050;7.800;2023-11-18T03:20:51;1.00;;;1.00;;
6642;SDS011;3357;48.050;7.800;2023-11-18T03:23:16;6.70;;;1.30;;
6642;SDS011;3357;48.050;7.800;2023-11-18T03:25:42;1.70;;;1.60;;
6642;SDS011;3357;48.050;7.800;2023-11-18T03:28:09;6.77;;;2.10;;
6642;SDS011;3357;48.050;7.800;2023-11-18T03:30:34;2.00;;;1.80;;
6642;SDS011;3357;48.050;7.800;2023-11-18T03:33:01;2.43;;;2.23;;
6642;SDS011;3357;48.050;7.800;2023-11-18T03:35:27;2.50;;;1.30;;
6642;SDS011;3357;48.050;7.800;2023-11-18T03:37:52;1.73;;;1.63;;
6642;SDS011;3357;48.050;7.800;2023-11-18T03:40:17;1.90;;;1.77;;
6642;SDS011;3357;48.050;7.800;2023-11-18T03:42:43;2.00;;;1.90;;
6642;SDS011;3357;48.050;7.800;2023-11-18T03:45:11;1.93;;;1.83;;
6642;SDS011;3357;48.050;7.800;2023-11-18T03:47:36;4.03;;;2.70;;
6642;SDS011;3357;48.050;7.800;2023-11-18T03:50:02;2.97;;;2.67;;
6642;SDS011;3357;48.050;7.800;2023-11-18T03:52:27;4.97;;;2.20;;
6642;SDS011;3357;48.050;7.800;2023-11-18T03:54:54;2.90;;;2.20;;
6642;SDS011;3357;48.050;7.800;2023-11-18T03:57:22;2.37;;;2.17;;
6642;SDS011;3357;48.050;7.800;2023-11-18T03:59:47;2.37;;;2.27;;
6642;SDS011;3357;48.050;7.800;2023-11-18T04:02:12;6.33;;;2.30;;
6642;SDS011;3357;48.050;7.800;2023-11-18T04:04:38;9.37;;;3.10;;
6642;SDS011;3357;48.050;7.800;2023-11-18T04:07:03;4.90;;;2.40;;
6642;SDS011;3357;48.050;7.800;2023-11-18T04:09:29;4.47;;;2.93;;
6642;SDS011;3357;48.050;7.800;2023-11-18T04:11:55;5.00;;;2.27;;
6642;SDS011;3357;48.050;7.800;2023-11-18T04:14:20;3.70;;;2.10;;
6642;SDS011;3357;48.050;7.800;2023-11-18T04:16:46;3.80;;;2.50;;
6642;SDS011;3357;48.050;7.800;2023-11-18T04:19:12;2.00;;;1.90;;
6642;SDS011;3357;48.050;7.800;2023-11-18T04:21:37;2.40;;;2.30;;
6642;SDS011;3357;48.050;7.800;2023-11-18T04:24:03;3.27;;;2.40;;
6642;SDS011;3357;48.050;7.800;2023-11-18T04:26:30;3.53;;;1.97;;
6642;SDS011;3357;48.050;7.800;2023-11-18T04:28:55;2.40;;;2.13;;
6642;SDS011;3357;48.050;7.800;2023-11-18T04:31:20;2.47;;;2.27;;
6642;SDS011;3357;48.050;7.800;2023-11-18T04:33:46;2.10;;;1.90;;
6642;SDS011;3357;48.050;7.800;2023-11-18T04:36:11;2.53;;;2.30;;
6642;SDS011;3357;48.050;7.800;2023-11-18T04:38:38;3.07;;;1.73;;
6642;SDS011;3357;48.050;7.800;2023-11-18T04:41:03;2.37;;;2.23;;
6642;SDS011;3357;48.050;7.800;2023-11-18T04:43:29;4.47;;;2.90;;
6642;SDS011;3357;48.050;7.800;2023-11-18T04:45:55;2.60;;;2.27;;
6642;SDS011;3357;48.050;7.800;2023-11-18T04:48:20;2.60;;;2.10;;
6642;SDS011;3357;48.050;7.800;2023-11-18T04:50:46;3.40;;;3.10;;
6642;SDS011;3357;48.050;7.800;2023-11-18T04:53:11;3.20;;;2.93;;
6642;SDS011;3357;48.050;7.800;2023-11-18T04:55:37;6.50;;;3.00;;
6642;SDS011;3357;48.050;7.800;2023-11-18T04:58:03;3.60;;;3.30;;
6642;SDS011;3357;48.050;7.800;2023-11-18T05:00:30;5.20;;;4.77;;
6642;SDS011;3357;48.050;7.800;2023-11-18T05:02:57;5.63;;;4.80;;
6642;SDS011;3357;48.050;7.800;2023-11-18T05:05:22;5.80;;;5.20;;
6642;SDS011;3357;48.050;7.800;2023-11-18T05:07:48;5.80;;;5.23;;
6642;SDS011;3357;48.050;7.800;2023-11-18T05:10:13;5.33;;;4.90;;
6642;SDS011;3357;48.050;7.800;2023-11-18T05:12:38;5.30;;;4.80;;
6642;SDS011;3357;48.050;7.800;2023-11-18T05:15:05;4.77;;;4.37;;
6642;SDS011;3357;48.050;7.800;2023-11-18T05:17:32;5.13;;;4.50;;
6642;SDS011;3357;48.050;7.800;2023-11-18T05:20:00;5.37;;;4.87;;
6642;SDS011;3357;48.050;7.800;2023-11-18T05:22:27;4.20;;;3.73;;
6642;SDS011;3357;48.050;7.800;2023-11-18T05:24:52;4.10;;;3.80;;
6642;SDS011;3357;48.050;7.800;2023-11-18T05:27:18;3.77;;;3.47;;
6642;SDS011;3357;48.050;7.800;2023-11-18T05:29:43;3.57;;;3.37;;
6642;SDS011;3357;48.050;7.800;2023-11-18T05:32:12;4.00;;;3.60;;
6642;SDS011;3357;48.050;7.800;2023-11-18T05:34:38;3.90;;;3.60;;
6642;SDS011;3357;48.050;7.800;2023-11-18T05:37:03;3.40;;;3.20;;
6642;SDS011;3357;48.050;7.800;2023-11-18T05:39:28;3.20;;;2.90;;
6642;SDS011;3357;48.050;7.800;2023-11-18T05:41:56;3.27;;;2.97;;
6642;SDS011;3357;48.050;7.800;2023-11-18T05:44:22;3.30;;;3.10;;
6642;SDS011;3357;48.050;7.800;2023-11-18T05:46:55;4.27;;;3.87;;
6642;SDS011;3357;48.050;7.800;2023-11-18T05:49:23;3.00;;;2.80;;
6642;SDS011;3357;48.050;7.800;2023-11-18T05:51:49;2.80;;;2.60;;
6642;SDS011;3357;48.050;7.800;2023-11-18T05:54:15;2.70;;;2.60;;
6642;SDS011;3357;48.050;7.800;2023-11-18T05:56:40;2.90;;;2.70;;
6642;SDS011;3357;48.050;7.800;2023-11-18T05:59:06;5.40;;;3.27;;
6642;SDS011;3357;48.050;7.800;2023-11-18T06:01:31;3.30;;;3.00;;
6642;SDS011;3357;48.050;7.800;2023-11-18T06:03:57;3.00;;;2.80;;
6642;SDS011;3357;48.050;7.800;2023-11-18T06:06:22;3.50;;;3.20;;
6642;SDS011;3357;48.050;7.800;2023-11-18T06:08:48;3.73;;;3.00;;
6642;SDS011;3357;48.050;7.800;2023-11-18T06:11:14;2.97;;;2.77;;
6642;SDS011;3357;48.050;7.800;2023-11-18T06:13:47;2.83;;;2.63;;
6642;SDS011;3357;48.050;7.800;2023-11-18T06:16:13;2.67;;;2.47;;
6642;SDS011;3357;48.050;7.800;2023-11-18T06:18:40;2.70;;;2.50;;
6642;SDS011;3357;48.050;7.800;2023-11-18T06:21:07;2.20;;;2.10;;
6642;SDS011;3357;48.050;7.800;2023-11-18T06:23:33;3.20;;;2.50;;
6642;SDS011;3357;48.050;7.800;2023-11-18T06:25:59;3.10;;;2.80;;
6642;SDS011;3357;48.050;7.800;2023-11-18T06:28:25;3.17;;;2.97;;
6642;SDS011;3357;48.050;7.800;2023-11-18T06:30:51;3.00;;;2.70;;
6642;SDS011;3357;48.050;7.800;2023-11-18T06:33:16;2.20;;;2.10;;
6642;SDS011;3357;48.050;7.800;2023-11-18T06:35:42;2.70;;;2.50;;
6642;SDS011;3357;48.050;7.800;2023-11-18T06:38:09;2.53;;;2.33;;
6642;SDS011;3357;48.050;7.800;2023-11-18T06:40:37;2.87;;;2.67;;
6642;SDS011;3357;48.050;7.800;2023-11-18T06:43:03;3.50;;;2.80;;
6642;SDS011;3357;48.050;7.800;2023-11-18T06:45:35;3.17;;;2.90;;
6642;SDS011;3357;48.050;7.800;2023-11-18T06:48:02;2.80;;;2.60;;
6642;SDS011;3357;48.050;7.800;2023-11-18T06:50:28;3.10;;;2.90;;
6642;SDS011;3357;48.050;7.800;2023-11-18T06:52:54;3.23;;;3.03;;
6642;SDS011;3357;48.050;7.800;2023-11-18T06:55:20;3.47;;;3.00;;
6642;SDS011;3357;48.050;7.800;2023-11-18T06:57:46;4.33;;;4.03;;
6642;SDS011;3357;48.050;7.800;2023-11-18T07:00:12;3.13;;;2.90;;
6642;SDS011;3357;48.050;7.800;2023-11-18T07:02:39;3.33;;;3.03;;
6642;SDS011;3357;48.050;7.800;2023-11-18T07:05:04;3.37;;;3.10;;
6642;SDS011;3357;48.050;7.800;2023-11-18T07:07:31;2.97;;;2.77;;
6642;SDS011;3357;48.050;7.800;2023-11-18T07:09:57;3.47;;;3.23;;
6642;SDS011;3357;48.050;7.800;2023-11-18T07:12:22;3.10;;;2.80;;
6642;SDS011;3357;48.050;7.800;2023-11-18T07:14:48;3.53;;;3.23;;
6642;SDS011;3357;48.050;7.800;2023-11-18T07:17:13;3.67;;;3.37;;
6642;SDS011;3357;48.050;7.800;2023-11-18T07:19:39;4.23;;;3.80;;
6642;SDS011;3357;48.050;7.800;2023-11-18T07:22:05;4.00;;;3.70;;
6642;SDS011;3357;48.050;7.800;2023-11-18T07:24:31;3.60;;;3.40;;
6642;SDS011;3357;48.050;7.800;2023-11-18T07:26:57;4.63;;;4.23;;
6642;SDS011;3357;48.050;7.800;2023-11-18T07:29:24;4.77;;;3.80;;
6642;SDS011;3357;48.050;7.800;2023-11-18T07:31:50;5.00;;;3.87;;
6642;SDS011;3357;48.050;7.800;2023-11-18T07:34:15;3.27;;;3.03;;
6642;SDS011;3357;48.050;7.800;2023-11-18T07:36:40;4.20;;;3.90;;
6642;SDS011;3357;48.050;7.800;2023-11-18T07:39:06;3.70;;;3.37;;
6642;SDS011;3357;48.050;7.800;2023-11-18T07:41:40;3.53;;;3.27;;
6642;SDS011;3357;48.050;7.800;2023-11-18T07:44:06;5.47;;;4.47;;
6642;SDS011;3357;48.050;7.800;2023-11-18T07:46:31;7.20;;;6.17;;
6642;SDS011;3357;48.050;7.800;2023-11-18T07:48:56;6.83;;;5.03;;
6642;SDS011;3357;48.050;7.800;2023-11-18T07:51:22;5.67;;;5.13;;
6642;SDS011;3357;48.050;7.800;2023-11-18T07:53:51;8.30;;;5.93;;
6642;SDS011;3357;48.050;7.800;2023-11-18T07:56:17;6.47;;;5.87;;
6642;SDS011;3357;48.050;7.800;2023-11-18T07:58:43;5.47;;;4.97;;
6642;SDS011;3357;48.050;7.800;2023-11-18T08:01:12;7.53;;;6.80;;
6642;SDS011;3357;48.050;7.800;2023-11-18T08:03:38;6.80;;;5.87;;
6642;SDS011;3357;48.050;7.800;2023-11-18T08:06:03;5.70;;;5.20;;
6642;SDS011;3357;48.050;7.800;2023-11-18T08:08:31;5.03;;;4.30;;
6642;SDS011;3357;48.050;7.800;2023-11-18T08:10:57;4.77;;;4.47;;
6642;SDS011;3357;48.050;7.800;2023-11-18T08:13:23;5.80;;;5.13;;
6642;SDS011;3357;48.050;7.800;2023-11-18T08:15:48;5.10;;;4.67;;
6642;SDS011;3357;48.050;7.800;2023-11-18T08:18:14;6.67;;;5.73;;
6642;SDS011;3357;48.050;7.800;2023-11-18T08:20:39;5.93;;;4.93;;
6642;SDS011;3357;48.050;7.800;2023-11-18T08:23:04;5.83;;;5.33;;
6642;SDS011;3357;48.050;7.800;2023-11-18T08:25:30;6.87;;;6.07;;
6642;SDS011;3357;48.050;7.800;2023-11-18T08:27:58;12.03;;;8.37;;
6642;SDS011;3357;48.050;7.800;2023-11-18T08:30:25;21.03;;;12.47;;
6642;SDS011;3357;48.050;7.800;2023-11-18T08:32:50;24.60;;;14.27;;
6642;SDS011;3357;48.050;7.800;2023-11-18T08:35:16;23.30;;;13.43;;
6642;SDS011;3357;48.050;7.800;2023-11-18T08:37:42;16.30;;;11.00;;
6642;SDS011;3357;48.050;7.800;2023-11-18T08:40:08;22.27;;;11.00;;
6642;SDS011;3357;48.050;7.800;2023-11-18T08:42:53;14.30;;;8.93;;
6642;SDS011;3357;48.050;7.800;2023-11-18T08:45:21;9.80;;;5.90;;
6642;SDS011;3357;48.050;7.800;2023-11-18T08:47:47;13.73;;;7.90;;
6642;SDS011;3357;48.050;7.800;2023-11-18T08:50:16;14.33;;;8.90;;
6642;SDS011;3357;48.050;7.800;2023-11-18T08:52:42;14.13;;;9.73;;
6642;SDS011;3357;48.050;7.800;2023-11-18T08:55:11;19.73;;;11.77;;
6642;SDS011;3357;48.050;7.800;2023-11-18T08:57:44;16.10;;;10.53;;
6642;SDS011;3357;48.050;7.800;2023-11-18T09:00:17;14.23;;;9.50;;
6642;SDS011;3357;48.050;7.800;2023-11-18T09:03:01;11.10;;;7.70;;
6642;SDS011;3357;48.050;7.800;2023-11-18T09:05:30;12.73;;;7.43;;
6642;SDS011;3357;48.050;7.800;2023-11-18T09:07:57;6.50;;;5.20;;
6642;SDS011;3357;48.050;7.800;2023-11-18T09:10:25;5.17;;;4.30;;
6642;SDS011;3357;48.050;7.800;2023-11-18T09:12:51;5.77;;;4.30;;
6642;SDS011;3357;48.050;7.800;2023-11-18T09:15:17;3.83;;;3.30;;
6642;SDS011;3357;48.050;7.800;2023-11-18T09:17:47;4.10;;;3.37;;
6642;SDS011;3357;48.050;7.800;2023-11-18T09:20:13;9.40;;;5.50;;
6642;SDS011;3357;48.050;7.800;2023-11-18T09:22:43;10.57;;;5.90;;
6642;SDS011;3357;48.050;7.800;2023-11-18T09:25:09;8.50;;;7.30;;
6642;SDS011;3357;48.050;7.800;2023-11-18T09:27:35;7.60;;;6.50;;
6642;SDS011;3357;48.050;7.800;2023-11-18T09:30:01;12.87;;;7.13;;
6642;SDS011;3357;48.050;7.800;2023-11-18T09:32:38;13.20;;;8.57;;
6642;SDS011;3357;48.050;7.800;2023-11-18T09:35:12;10.30;;;5.87;;
6642;SDS011;3357;48.050;7.800;2023-11-18T09:37:39;10.00;;;6.33;;
6642;SDS011;3357;48.050;7.800;2023-11-18T09:40:06;5.13;;;4.70;;
6642;SDS011;3357;48.050;7.800;2023-11-18T09:42:42;15.83;;;6.60;;
6642;SDS011;3357;48.050;7.800;2023-11-18T09:45:09;6.07;;;5.47;;
6642;SDS011;3357;48.050;7.800;2023-11-18T09:47:44;11.93;;;4.90;;
6642;SDS011;3357;48.050;7.800;2023-11-18T09:50:12;6.27;;;4.90;;
6642;SDS011;3357;48.050;7.800;2023-11-18T09:52:46;7.90;;;4.50;;
6642;SDS011;3357;48.050;7.800;2023-11-18T09:55:26;6.60;;;3.30;;
6642;SDS011;3357;48.050;7.800;2023-11-18T09:57:59;8.63;;;3.30;;
6642;SDS011;3357;48.050;7.800;2023-11-18T10:00:29;5.10;;;3.80;;
6642;SDS011;3357;48.050;7.800;2023-11-18T10:02:58;7.73;;;3.90;;
6642;SDS011;3357;48.050;7.800;2023-11-18T10:05:27;4.53;;;4.13;;
6642;SDS011;3357;48.050;7.800;2023-11-18T10:07:53;6.33;;;4.20;;
6642;SDS011;3357;48.050;7.800;2023-11-18T10:10:18;8.17;;;3.63;;
6642;SDS011;3357;48.050;7.800;2023-11-18T10:12:49;5.17;;;3.53;;
6642;SDS011;3357;48.050;7.800;2023-11-18T10:15:18;10.80;;;4.37;;
6642;SDS011;3357;48.050;7.800;2023-11-18T10:17:48;13.53;;;7.23;;
6642;SDS011;3357;48.050;7.800;2023-11-18T10:20:22;8.20;;;5.90;;
6642;SDS011;3357;48.050;7.800;2023-11-18T10:23:05;6.77;;;4.73;;
6642;SDS011;3357;48.050;7.800;2023-11-18T10:25:31;5.80;;;4.30;;
6642;SDS011;3357;48.050;7.800;2023-11-18T10:27:59;5.73;;;4.67;;
6642;SDS011;3357;48.050;7.800;2023-11-18T10:30:27;3.33;;;2.83;;
6642;SDS011;3357;48.050;7.800;2023-11-18T10:32:56;4.20;;;2.70;;
6642;SDS011;3357;48.050;7.800;2023-11-18T10:35:30;4.00;;;2.17;;
6642;SDS011;3357;48.050;7.800;2023-11-18T10:37:57;10.50;;;3.27;;
6642;SDS011;3357;48.050;7.800;2023-11-18T10:40:24;4.77;;;2.33;;
6642;SDS011;3357;48.050;7.800;2023-11-18T10:42:49;2.50;;;2.00;;
6642;SDS011;3357;48.050;7.800;2023-11-18T10:45:23;2.67;;;2.57;;
6642;SDS011;3357;48.050;7.800;2023-11-18T10:47:50;2.00;;;1.90;;
6642;SDS011;3357;48.050;7.800;2023-11-18T10:50:15;2.73;;;2.53;;
6642;SDS011;3357;48.050;7.800;2023-11-18T10:52:44;2.70;;;2.20;;
6642;SDS011;3357;48.050;7.800;2023-11-18T10:55:11;2.63;;;2.00;;
6642;SDS011;3357;48.050;7.800;2023-11-18T10:57:36;2.83;;;2.40;;
6642;SDS011;3357;48.050;7.800;2023-11-18T11:02:38;1.83;;;1.73;;
6642;SDS011;3357;48.050;7.800;2023-11-18T11:05:06;6.10;;;2.10;;
6642;SDS011;3357;48.050;7.800;2023-11-18T11:07:41;1.40;;;1.30;;
6642;SDS011;3357;48.050;7.800;2023-11-18T11:10:07;2.60;;;1.40;;
6642;SDS011;3357;48.050;7.800;2023-11-18T11:12:33;3.50;;;1.50;;
6642;SDS011;3357;48.050;7.800;2023-11-18T11:17:32;3.77;;;1.90;;
6642;SDS011;3357;48.050;7.800;2023-11-18T11:20:05;3.80;;;1.97;;
6642;SDS011;3357;48.050;7.800;2023-11-18T11:25:43;1.87;;;1.73;;
6642;SDS011;3357;48.050;7.800;2023-11-18T11:28:15;1.60;;;1.50;;
6642;SDS011;3357;48.050;7.800;2023-11-18T11:30:44;3.23;;;1.47;;
6642;SDS011;3357;48.050;7.800;2023-11-18T11:36:07;3.10;;;1.40;;
6642;SDS011;3357;48.050;7.800;2023-11-18T11:38:36;2.57;;;1.60;;
6642;SDS011;3357;48.050;7.800;2023-11-18T11:41:02;2.03;;;1.90;;
6642;SDS011;3357;48.050;7.800;2023-11-18T11:43:33;1.80;;;1.70;;
6642;SDS011;3357;48.050;7.800;2023-11-18T11:46:00;4.30;;;1.93;;
6642;SDS011;3357;48.050;7.800;2023-11-18T11:48:35;2.20;;;1.83;;
6642;SDS011;3357;48.050;7.800;2023-11-18T11:51:03;8.47;;;2.20;;
6642;SDS011;3357;48.050;7.800;2023-11-18T11:53:39;3.40;;;2.13;;
6642;SDS011;3357;48.050;7.800;2023-11-18T11:56:10;2.40;;;2.30;;
6642;SDS011;3357;48.050;7.800;2023-11-18T11:58:38;2.90;;;2.70;;
6642;SDS011;3357;48.050;7.800;2023-11-18T12:01:35;4.20;;;2.40;;
6642;SDS011;3357;48.050;7.800;2023-11-18T12:04:03;4.70;;;3.00;;
6642;SDS011;3357;48.050;7.800;2023-11-18T12:06:33;2.87;;;2.67;;
6642;SDS011;3357;48.050;7.800;2023-11-18T12:09:00;5.00;;;2.70;;
6642;SDS011;3357;48.050;7.800;2023-11-18T12:11:32;6.80;;;3.07;;
6642;SDS011;3357;48.050;7.800;2023-11-18T12:14:08;4.00;;;2.37;;
6642;SDS011;3357;48.050;7.800;2023-11-18T12:19:48;2.50;;;2.30;;
6642;SDS011;3357;48.050;7.800;2023-11-18T12:22:17;3.13;;;2.83;;
6642;SDS011;3357;48.050;7.800;2023-11-18T12:35:21;3.60;;;1.73;;
6642;SDS011;3357;48.050;7.800;2023-11-18T12:43:15;4.83;;;2.03;;
6642;SDS011;3357;48.050;7.800;2023-11-18T12:48:30;3.30;;;1.97;;
6642;SDS011;3357;48.050;7.800;2023-11-18T12:50:57;9.63;;;3.27;;
6642;SDS011;3357;48.050;7.800;2023-11-18T12:53:25;4.67;;;2.97;;
6642;SDS011;3357;48.050;7.800;2023-11-18T12:55:51;9.07;;;2.70;;
6642;SDS011;3357;48.050;7.800;2023-11-18T12:58:17;2.17;;;2.00;;
6642;SDS011;3357;48.050;7.800;2023-11-18T13:00:43;5.83;;;2.07;;
6642;SDS011;3357;48.050;7.800;2023-11-18T13:03:10;5.30;;;1.83;;
6642;SDS011;3357;48.050;7.800;2023-11-18T13:05:36;3.27;;;2.00;;
6642;SDS011;3357;48.050;7.800;2023-11-18T13:08:02;6.40;;;2.30;;
6642;SDS011;3357;48.050;7.800;2023-11-18T13:10:27;4.10;;;2.30;;
6642;SDS011;3357;48.050;7.800;2023-11-18T13:12:53;3.03;;;2.83;;
6642;SDS011;3357;48.050;7.800;2023-11-18T13:15:19;3.17;;;2.97;;
6642;SDS011;3357;48.050;7.800;2023-11-18T13:20:23;5.97;;;3.63;;
6642;SDS011;3357;48.050;7.800;2023-11-18T13:22:49;4.80;;;3.93;;
6642;SDS011;3357;48.050;7.800;2023-11-18T13:25:15;3.67;;;3.30;;
6642;SDS011;3357;48.050;7.800;2023-11-18T13:27:42;6.30;;;3.20;;
6642;SDS011;3357;48.050;7.800;2023-11-18T13:30:07;7.33;;;2.63;;
6642;SDS011;3357;48.050;7.800;2023-11-18T13:32:39;2.40;;;2.30;;
6642;SDS011;3357;48.050;7.800;2023-11-18T13:35:06;6.97;;;2.63;;
6642;SDS011;3357;48.050;7.800;2023-11-18T13:37:32;4.40;;;2.50;;
6642;SDS011;3357;48.050;7.800;2023-11-18T13:39:57;2.83;;;2.40;;
6642;SDS011;3357;48.050;7.800;2023-11-18T13:42:28;3.20;;;2.90;;
6642;SDS011;3357;48.050;7.800;2023-11-18T13:44:53;3.60;;;2.87;;
6642;SDS011;3357;48.050;7.800;2023-11-18T13:47:25;4.87;;;3.33;;
6642;SDS011;3357;48.050;7.800;2023-11-18T13:49:53;7.50;;;3.70;;
6642;SDS011;3357;48.050;7.800;2023-11-18T13:52:19;4.60;;;3.03;;
6642;SDS011;3357;48.050;7.800;2023-11-18T13:54:46;5.07;;;2.70;;
6642;SDS011;3357;48.050;7.800;2023-11-18T13:57:12;8.00;;;3.67;;
6642;SDS011;3357;48.050;7.800;2023-11-18T13:59:37;6.50;;;4.30;;
6642;SDS011;3357;48.050;7.800;2023-11-18T14:02:03;9.53;;;4.20;;
6642;SDS011;3357;48.050;7.800;2023-11-18T14:04:29;4.90;;;2.97;;
6642;SDS011;3357;48.050;7.800;2023-11-18T14:06:57;4.30;;;2.70;;
6642;SDS011;3357;48.050;7.800;2023-11-18T14:09:24;2.17;;;2.00;;
6642;SDS011;3357;48.050;7.800;2023-11-18T14:11:53;5.53;;;2.43;;
6642;SDS011;3357;48.050;7.800;2023-11-18T14:14:24;2.93;;;2.50;;
6642;SDS011;3357;48.050;7.800;2023-11-18T14:16:50;5.77;;;2.80;;
6642;SDS011;3357;48.050;7.800;2023-11-18T14:19:18;3.37;;;2.37;;
6642;SDS011;3357;48.050;7.800;2023-11-18T14:21:43;3.30;;;2.20;;
6642;SDS011;3357;48.050;7.800;2023-11-18T14:24:09;2.57;;;2.30;;
6642;SDS011;3357;48.050;7.800;2023-11-18T14:26:35;3.13;;;2.20;;
6642;SDS011;3357;48.050;7.800;2023-11-18T14:29:01;2.73;;;2.53;;
6642;SDS011;3357;48.050;7.800;2023-11-18T14:31:27;2.70;;;2.20;;
6642;SDS011;3357;48.050;7.800;2023-11-18T14:33:53;3.87;;;2.20;;
6642;SDS011;3357;48.050;7.800;2023-11-18T14:36:21;5.63;;;2.30;;
6642;SDS011;3357;48.050;7.800;2023-11-18T14:38:46;3.63;;;2.00;;
6642;SDS011;3357;48.050;7.800;2023-11-18T14:41:12;6.50;;;2.70;;
6642;SDS011;3357;48.050;7.800;2023-11-18T14:43:37;4.13;;;2.50;;
6642;SDS011;3357;48.050;7.800;2023-11-18T14:46:03;3.47;;;2.53;;
6642;SDS011;3357;48.050;7.800;2023-11-18T14:48:29;7.83;;;2.40;;
6642;SDS011;3357;48.050;7.800;2023-11-18T14:50:54;5.50;;;2.80;;
6642;SDS011;3357;48.050;7.800;2023-11-18T14:53:21;3.13;;;2.63;;
6642;SDS011;3357;48.050;7.800;2023-11-18T14:55:47;7.33;;;3.47;;
6642;SDS011;3357;48.050;7.800;2023-11-18T14:58:12;3.10;;;2.13;;
6642;SDS011;3357;48.050;7.800;2023-11-18T15:00:38;2.70;;;2.27;;
6642;SDS011;3357;48.050;7.800;2023-11-18T15:03:04;3.30;;;2.23;;
6642;SDS011;3357;48.050;7.800;2023-11-18T15:05:31;2.93;;;2.50;;
6642;SDS011;3357;48.050;7.800;2023-11-18T15:07:56;5.20;;;1.93;;
6642;SDS011;3357;48.050;7.800;2023-11-18T15:10:23;2.93;;;2.23;;
6642;SDS011;3357;48.050;7.800;2023-11-18T15:12:50;2.10;;;1.73;;
6642;SDS011;3357;48.050;7.800;2023-11-18T15:15:25;2.50;;;1.50;;
6642;SDS011;3357;48.050;7.800;2023-11-18T15:17:57;3.53;;;1.87;;
6642;SDS011;3357;48.050;7.800;2023-11-18T15:20:29;2.60;;;1.93;;
6642;SDS011;3357;48.050;7.800;2023-11-18T15:22:55;3.77;;;1.47;;
6642;SDS011;3357;48.050;7.800;2023-11-18T15:25:20;1.77;;;1.53;;
6642;SDS011;3357;48.050;7.800;2023-11-18T15:27:46;2.70;;;1.93;;
6642;SDS011;3357;48.050;7.800;2023-11-18T15:30:12;14.97;;;5.83;;
6642;SDS011;3357;48.050;7.800;2023-11-18T15:32:38;17.70;;;9.60;;
6642;SDS011;3357;48.050;7.800;2023-11-18T15:35:05;12.23;;;6.30;;
6642;SDS011;3357;48.050;7.800;2023-11-18T15:37:37;15.47;;;9.10;;
6642;SDS011;3357;48.050;7.800;2023-11-18T15:40:07;18.13;;;9.07;;
6642;SDS011;3357;48.050;7.800;2023-11-18T15:42:41;12.80;;;5.60;;
6642;SDS011;3357;48.050;7.800;2023-11-18T15:45:08;10.53;;;6.60;;
6642;SDS011;3357;48.050;7.800;2023-11-18T15:47:37;9.10;;;5.40;;
6642;SDS011;3357;48.050;7.800;2023-11-18T15:50:06;9.30;;;6.03;;
6642;SDS011;3357;48.050;7.800;2023-11-18T15:52:33;11.43;;;5.67;;